Time;durP1;ratioP1;P1;durP2;ratioP2;P2;SDS_P1;SDS_P2;PMS_P1;PMS_P2;Temp;Humidity;BMP_temperature;BMP_pressure;BME280_temperature;BME280_humidity;BME280_pressure;Samples;Min_cycle;Max_cycle;Signal;HPM_P1;HPM_P2
2023/09/20 04:15:50;;;;;;;;;;;;;;;;;;;;;
2023/09/20 05:16:14;;;;;;;281.43;158.00;;;16.80;99.90;;;;;;6106627;22;3596306;-87
2023/09/20 05:18:40;;;;;;;282.17;158.93;;;16.60;99.90;;;;;;6233774;22;20023;-86
2023/09/20 05:21:25;;;;;;;300.80;171.70;;;16.60;99.90;;;;;;6258866;22;20015;-87
2023/09/20 05:24:21;;;;;;;300.77;171.43;;;16.70;99.90;;;;;;6284128;22;20373;-87
2023/09/20 05:27:07;;;;;;;301.83;172.00;;;16.50;99.90;;;;;;6233977;22;20511;-88
2023/09/20 05:30:16;;;;;;;298.13;169.17;;;16.40;99.90;;;;;;6234864;22;20015;-88
2023/09/20 05:33:02;;;;;;;301.23;171.83;;;16.40;99.90;;;;;;6254875;22;20015;-87
2023/09/20 05:49:53;;;;;;;300.50;171.33;;;16.40;99.90;;;;;;6191351;23;20016;-85
2023/09/20 05:52:22;;;;;;;299.37;170.60;;;16.40;99.90;;;;;;6141858;23;20012;-87
2023/09/20 05:54:52;;;;;;;297.93;169.60;;;16.40;99.90;;;;;;6166109;23;20009;-86
2023/09/20 05:57:22;;;;;;;299.83;170.43;;;16.40;99.90;;;;;;6167448;23;20020;-85
2023/09/20 06:00:00;;;;;;;;;;;;;;;;;;;;;
2023/09/20 06:02:26;;;;;;;299.93;170.03;;;16.50;99.90;;;;;;6183766;23;20391;-87
2023/09/20 06:05:00;;;;;;;300.47;169.97;;;16.30;99.90;;;;;;6143252;23;20459;-91
2023/09/20 06:07:42;;;;;;;300.47;170.40;;;15.70;99.90;;;;;;6167711;23;20333;-90
2023/09/20 06:10:39;;;;;;;300.17;170.10;;;16.50;99.90;;;;;;6185773;23;20055;-88
2023/09/20 06:13:13;;;;;;;299.63;169.33;;;16.50;99.90;;;;;;6190804;23;20436;-88
2023/09/20 06:15:39;;;;;;;301.45;170.32;;;16.60;99.90;;;;;;6221741;22;20033;-89
2023/09/20 06:18:10;;;;;;;301.37;170.33;;;16.50;99.90;;;;;;6255804;22;20414;-87
2023/09/20 06:20:39;;;;;;;300.10;169.57;;;16.50;99.90;;;;;;6254568;22;20449;-88
2023/09/20 06:23:10;;;;;;;300.90;170.70;;;16.50;99.90;;;;;;6280690;22;20011;-87
2023/09/20 06:25:47;;;;;;;301.93;170.60;;;16.60;99.90;;;;;;6305068;22;20456;-87
2023/09/20 06:28:13;;;;;;;302.90;171.43;;;16.60;99.90;;;;;;6281091;22;20094;-86
2023/09/20 06:30:43;;;;;;;303.10;171.07;;;16.60;99.90;;;;;;6309315;22;20057;-86
2023/09/20 06:33:13;;;;;;;302.80;171.33;;;16.70;99.90;;;;;;6256112;22;20396;-87
2023/09/20 06:35:40;;;;;;;302.60;170.80;;;16.70;99.90;;;;;;6255757;22;20411;-86
2023/09/20 06:38:32;;;;;;;303.60;171.37;;;16.70;99.90;;;;;;6281137;22;20438;-86
2023/09/20 06:41:01;;;;;;;294.13;164.77;;;16.80;99.90;;;;;;6282078;22;20019;-88
2023/09/20 06:43:27;;;;;;;303.90;170.70;;;16.70;99.90;;;;;;6281215;22;21890;-86
2023/09/20 06:46:03;;;;;;;306.93;172.13;;;16.70;99.90;;;;;;6308128;22;20042;-87
2023/09/20 06:48:34;;;;;;;308.43;173.07;;;16.70;99.90;;;;;;6306959;22;20012;-88
2023/09/20 06:51:00;;;;;;;306.80;172.13;;;16.70;99.90;;;;;;6254780;22;20019;-85
2023/09/20 06:53:26;;;;;;;306.00;171.23;;;16.60;99.90;;;;;;6255426;22;20011;-86
2023/09/20 06:55:52;;;;;;;307.33;171.83;;;16.60;99.90;;;;;;6254753;22;20019;-85
2023/09/20 06:58:21;;;;;;;307.10;171.57;;;16.70;99.90;;;;;;6308366;22;20062;-85
2023/09/20 07:00:50;;;;;;;307.30;171.33;;;16.80;99.90;;;;;;6281497;22;20011;-85
2023/09/20 07:03:17;;;;;;;307.80;171.10;;;16.80;99.90;;;;;;6307729;22;20365;-85
2023/09/20 07:05:46;;;;;;;309.37;172.20;;;16.80;99.90;;;;;;6255201;22;20019;-86
2023/09/20 07:08:15;;;;;;;306.20;170.37;;;16.90;99.90;;;;;;6280435;22;20148;-86
2023/09/20 07:10:41;;;;;;;307.87;171.57;;;16.90;99.90;;;;;;6281142;22;20016;-81
2023/09/20 07:13:17;;;;;;;307.03;170.53;;;16.90;99.90;;;;;;6308255;22;20019;-84
2023/09/20 07:15:43;;;;;;;307.80;170.43;;;16.90;99.90;;;;;;6257636;22;20518;-84
2023/09/20 07:18:12;;;;;;;309.43;171.97;;;16.90;99.90;;;;;;6277055;22;20378;-84
2023/09/20 07:20:40;;;;;;;309.40;171.33;;;17.00;99.90;;;;;;6276877;22;20016;-86
2023/09/20 07:23:08;;;;;;;311.57;172.67;;;16.90;99.90;;;;;;6276235;22;20020;-85
2023/09/20 07:25:43;;;;;;;311.37;171.33;;;17.00;99.90;;;;;;6249630;22;20061;-84
2023/09/20 07:28:09;;;;;;;314.53;173.60;;;17.00;99.90;;;;;;6276292;22;20053;-82
2023/09/20 07:30:40;;;;;;;314.83;173.33;;;17.00;99.90;;;;;;6224535;22;20107;-83
2023/09/20 07:33:11;;;;;;;311.93;172.00;;;17.00;99.90;;;;;;6224587;22;20090;-83
2023/09/20 07:35:38;;;;;;;292.53;161.23;;;17.10;99.90;;;;;;6249714;22;20113;-85
2023/09/20 07:38:09;;;;;;;290.67;160.77;;;17.10;99.90;;;;;;6277014;22;20015;-84
2023/09/20 07:40:41;;;;;;;297.83;171.10;;;17.10;99.90;;;;;;6224305;22;20026;-83
2023/09/20 07:43:07;;;;;;;297.03;169.50;;;17.30;99.90;;;;;;6249804;22;20012;-84
2023/09/20 07:45:38;;;;;;;301.00;171.63;;;17.30;99.90;;;;;;6276748;22;20015;-84
2023/09/20 07:48:11;;;;;;;299.60;171.23;;;17.50;99.90;;;;;;6249500;22;20019;-84
2023/09/20 07:50:40;;;;;;;296.47;169.07;;;17.40;99.90;;;;;;6277377;22;20023;-84
2023/09/20 07:53:19;;;;;;;298.70;170.07;;;17.50;99.90;;;;;;6224388;22;20054;-84
2023/09/20 07:55:57;;;;;;;299.90;171.37;;;17.60;99.90;;;;;;6276283;22;20019;-85
2023/09/20 07:58:26;;;;;;;300.17;170.93;;;17.60;99.90;;;;;;6224072;22;20347;-83
2023/09/20 08:00:55;;;;;;;300.87;171.37;;;17.60;99.90;;;;;;6249594;22;20058;-84
2023/09/20 08:03:22;;;;;;;287.47;170.13;;;17.60;99.90;;;;;;6276465;22;20098;-83
2023/09/20 08:05:48;;;;;;;289.90;170.37;;;17.70;99.90;;;;;;6274494;22;20020;-84
2023/09/20 08:08:14;;;;;;;285.10;168.07;;;17.70;99.90;;;;;;6276384;22;20150;-83
2023/09/20 08:10:41;;;;;;;262.90;163.57;;;17.80;99.90;;;;;;6224157;22;20050;-84
2023/09/20 08:13:08;;;;;;;261.60;162.33;;;17.80;99.90;;;;;;6224255;22;20064;-84
2023/09/20 08:15:44;;;;;;;266.63;164.37;;;17.90;99.90;;;;;;6249468;22;20389;-83
2023/09/20 08:20:56;;;;;;;223.75;154.27;;;18.10;99.90;;;;;;6276976;22;20342;-83
2023/09/20 09:02:15;;;;;;;209.20;151.03;;;18.80;99.90;;;;;;6249258;22;20023;-83
2023/09/20 09:04:46;;;;;;;207.90;150.10;;;18.80;99.90;;;;;;6276610;22;20449;-84
2023/09/20 09:07:17;;;;;;;208.23;150.20;;;18.80;99.90;;;;;;6249343;22;20046;-83
2023/09/20 09:09:45;;;;;;;209.43;150.67;;;18.80;99.90;;;;;;6224096;22;20047;-84
2023/09/20 09:12:13;;;;;;;211.93;151.87;;;18.70;99.90;;;;;;6275994;22;20082;-87
2023/09/20 09:14:48;;;;;;;209.70;150.43;;;18.70;99.90;;;;;;6248566;22;20026;-89
2023/09/20 09:17:23;;;;;;;213.63;152.18;;;18.70;99.90;;;;;;6223033;22;20020;-86
2023/09/20 09:19:52;;;;;;;213.98;152.27;;;18.50;99.90;;;;;;6249315;22;20020;-85
2023/09/20 09:22:17;;;;;;;213.13;151.93;;;18.70;99.90;;;;;;6276403;22;20046;-86
2023/09/20 09:24:45;;;;;;;208.77;151.47;;;18.60;99.90;;;;;;6275872;22;20024;-85
2023/09/20 09:27:11;;;;;;;208.17;151.57;;;18.70;99.90;;;;;;6276278;22;20011;-86
2023/09/20 09:29:38;;;;;;;208.27;150.63;;;18.60;99.90;;;;;;6223378;22;20020;-85
2023/09/20 09:32:04;;;;;;;207.77;150.03;;;18.60;99.90;;;;;;6249380;22;20011;-86
2023/09/20 09:34:31;;;;;;;205.97;150.53;;;18.60;99.90;;;;;;6249085;22;20016;-86
2023/09/20 09:36:57;;;;;;;209.97;151.03;;;18.70;99.90;;;;;;6248933;22;20389;-86
2023/09/20 09:39:24;;;;;;;210.03;151.33;;;18.80;99.90;;;;;;6248963;22;20342;-86
2023/09/20 09:41:51;;;;;;;210.13;151.00;;;18.70;99.90;;;;;;6247858;22;20458;-85
2023/09/20 09:44:17;;;;;;;212.30;152.03;;;18.70;99.90;;;;;;6276042;22;20023;-85
2023/09/20 09:46:43;;;;;;;211.10;151.43;;;18.70;99.90;;;;;;6223472;22;20546;-85
2023/09/20 09:49:18;;;;;;;209.83;150.87;;;18.80;99.90;;;;;;6249335;22;20019;-85
2023/09/20 09:51:51;;;;;;;207.87;149.73;;;18.80;99.90;;;;;;6277297;22;20023;-85
2023/09/20 09:54:28;;;;;;;210.03;151.03;;;18.80;99.90;;;;;;6224831;22;20015;-87
2023/09/20 09:56:57;;;;;;;208.40;151.03;;;19.00;99.90;;;;;;6250959;22;20466;-85
2023/09/20 09:59:23;;;;;;;210.07;150.83;;;18.90;99.90;;;;;;6251469;22;20016;-85
2023/09/20 10:01:50;;;;;;;209.10;150.37;;;19.00;99.90;;;;;;6250280;22;20520;-83
2023/09/20 10:04:18;;;;;;;208.97;150.47;;;19.10;99.90;;;;;;6277747;22;20077;-85
2023/09/20 10:07:10;;;;;;;211.43;151.07;;;19.00;99.90;;;;;;6224695;22;20012;-84
2023/09/20 10:09:39;;;;;;;210.07;150.27;;;19.00;99.90;;;;;;6276637;22;20023;-83
2023/09/20 10:12:07;;;;;;;210.77;150.90;;;19.00;99.90;;;;;;6249389;22;20095;-85
2023/09/20 10:14:36;;;;;;;210.03;150.23;;;19.10;99.90;;;;;;6250240;22;20027;-84
2023/09/20 10:17:04;;;;;;;210.57;151.43;;;19.10;99.90;;;;;;6249873;22;20032;-84
2023/09/20 10:19:30;;;;;;;212.83;151.93;;;19.10;99.90;;;;;;6250395;22;20016;-82
2023/09/20 10:22:08;;;;;;;207.57;150.47;;;19.00;99.90;;;;;;6250610;22;20016;-83
2023/09/20 10:24:50;;;;;;;207.83;149.60;;;19.30;99.90;;;;;;6277189;22;20020;-84
2023/09/20 10:27:17;;;;;;;213.17;152.00;;;19.10;99.90;;;;;;6224707;22;20461;-84
2023/09/20 10:30:02;;;;;;;212.47;151.20;;;19.20;99.90;;;;;;6249821;22;20024;-84
2023/09/20 10:32:53;;;;;;;216.50;153.50;;;19.10;99.90;;;;;;6250192;22;20020;-83
2023/09/20 10:35:35;;;;;;;214.00;152.10;;;19.20;99.90;;;;;;6249938;22;20020;-83
2023/09/20 10:38:15;;;;;;;211.07;151.83;;;19.20;99.90;;;;;;6249751;22;20020;-83
2023/09/20 10:40:57;;;;;;;211.87;152.37;;;19.30;99.90;;;;;;6277107;22;20024;-84
2023/09/20 10:43:57;;;;;;;212.60;153.03;;;19.30;99.90;;;;;;6277442;22;20346;-83
2023/09/20 10:46:25;;;;;;;202.63;149.17;;;19.40;99.90;;;;;;6250874;22;20065;-84
2023/09/20 10:48:52;;;;;;;203.87;150.10;;;19.50;99.90;;;;;;6249194;22;20046;-84
2023/09/20 10:51:48;;;;;;;206.90;151.40;;;19.50;99.90;;;;;;6250864;22;20012;-86
2023/09/20 10:54:19;;;;;;;205.77;150.27;;;19.40;99.90;;;;;;6250031;22;20016;-86
2023/09/20 10:56:53;;;;;;;205.93;150.17;;;19.40;99.90;;;;;;6250001;22;20016;-85
2023/09/20 10:59:30;;;;;;;207.68;150.10;;;19.40;99.90;;;;;;6249709;22;20012;-86
2023/09/20 11:02:09;;;;;;;214.30;153.47;;;19.30;99.90;;;;;;6250418;22;20087;-85
2023/09/20 11:04:38;;;;;;;212.00;151.83;;;19.30;99.90;;;;;;6277298;22;20153;-85
2023/09/20 11:07:14;;;;;;;213.83;153.63;;;19.30;99.90;;;;;;6276772;22;20446;-85
2023/09/20 11:09:42;;;;;;;213.80;152.93;;;19.40;99.90;;;;;;6249939;22;20095;-86
2023/09/20 11:12:08;;;;;;;210.73;151.23;;;19.40;99.90;;;;;;6224690;22;20400;-85
2023/09/20 11:14:40;;;;;;;210.77;151.23;;;19.40;99.90;;;;;;6258023;22;20019;-85
2023/09/20 11:17:07;;;;;;;208.70;150.87;;;19.40;99.90;;;;;;6254333;22;20041;-85
2023/09/20 11:19:34;;;;;;;210.83;151.73;;;19.40;99.90;;;;;;6280357;22;20098;-85
2023/09/20 11:22:01;;;;;;;210.97;152.40;;;19.40;99.90;;;;;;6307719;22;20019;-85
2023/09/20 11:24:27;;;;;;;211.07;152.27;;;19.40;99.90;;;;;;6280287;22;20077;-86
2023/09/20 11:27:00;;;;;;;214.87;153.63;;;19.30;99.90;;;;;;6255317;22;20074;-85
2023/09/20 11:29:26;;;;;;;214.83;153.67;;;19.40;99.90;;;;;;6280537;22;20022;-86
2023/09/20 11:31:58;;;;;;;212.27;152.13;;;19.40;99.90;;;;;;6280261;22;20015;-85
2023/09/20 11:34:42;;;;;;;212.10;152.83;;;19.50;99.90;;;;;;6280711;22;20025;-85
2023/09/20 11:37:11;;;;;;;216.63;155.13;;;19.50;99.90;;;;;;6280138;22;20023;-85
2023/09/20 11:39:42;;;;;;;219.10;155.10;;;19.50;99.90;;;;;;6308000;22;20018;-86
2023/09/20 11:42:08;;;;;;;220.07;155.40;;;19.50;99.90;;;;;;6280368;22;20016;-86
2023/09/20 11:44:35;;;;;;;218.13;153.80;;;19.50;99.90;;;;;;6306830;22;20488;-85
2023/09/20 11:47:03;;;;;;;210.40;153.10;;;19.60;99.90;;;;;;6279798;22;20444;-86
2023/09/20 11:49:33;;;;;;;209.83;152.13;;;19.50;99.90;;;;;;6280609;22;20031;-86
2023/09/20 11:52:01;;;;;;;211.77;153.07;;;19.50;99.90;;;;;;6279596;22;20011;-85
2023/09/20 11:54:32;;;;;;;214.03;154.33;;;19.60;99.90;;;;;;6280007;22;20016;-86
2023/09/20 11:57:02;;;;;;;204.57;152.10;;;19.70;99.90;;;;;;6307782;22;20061;-86
2023/09/20 11:59:31;;;;;;;199.80;151.27;;;19.70;99.90;;;;;;6254307;22;20060;-87
2023/09/20 12:01:59;;;;;;;204.77;153.20;;;19.80;99.90;;;;;;6254405;22;20068;-86
2023/09/20 12:04:28;;;;;;;203.90;152.07;;;19.70;99.90;;;;;;6280617;22;20019;-86
2023/09/20 12:06:56;;;;;;;173.10;142.07;;;19.70;99.90;;;;;;6306721;22;20388;-86
2023/09/20 12:09:22;;;;;;;184.03;144.90;;;19.80;99.90;;;;;;6254577;22;20465;-86
2023/09/20 12:11:53;;;;;;;143.40;128.13;;;19.80;99.90;;;;;;6280950;22;20015;-86
2023/09/20 12:14:28;;;;;;;149.03;132.77;;;19.90;99.90;;;;;;6279600;22;20015;-85
2023/09/20 12:16:56;;;;;;;149.20;132.77;;;19.90;99.90;;;;;;6255357;22;20015;-86
2023/09/20 12:19:22;;;;;;;149.07;132.70;;;19.80;99.90;;;;;;6307472;22;20080;-86
2023/09/20 12:21:49;;;;;;;148.90;132.47;;;19.80;99.90;;;;;;6279925;22;20073;-86
2023/09/20 12:24:22;;;;;;;150.20;133.53;;;19.70;99.90;;;;;;6253464;22;20019;-86
2023/09/20 12:26:51;;;;;;;149.37;132.57;;;19.70;99.90;;;;;;6280098;22;20050;-86
2023/09/20 12:29:20;;;;;;;149.97;133.03;;;19.60;99.90;;;;;;6279966;22;20019;-86
2023/09/20 12:31:49;;;;;;;150.17;133.07;;;19.60;99.90;;;;;;6280045;22;20008;-86
2023/09/20 12:34:41;;;;;;;151.57;133.83;;;19.70;99.90;;;;;;6254336;22;20057;-86
2023/09/20 12:37:13;;;;;;;151.93;133.67;;;19.70;99.90;;;;;;6279441;22;20023;-86
2023/09/20 12:39:39;;;;;;;153.43;134.83;;;19.70;99.90;;;;;;6306462;22;20007;-86
2023/09/20 12:42:19;;;;;;;;;;;;;;;;;;;;;
2023/09/20 12:44:49;;;;;;;151.30;133.43;;;19.80;99.90;;;;;;6303044;22;20094;-86
2023/09/20 12:47:19;;;;;;;150.90;133.30;;;19.70;99.90;;;;;;6307464;22;20074;-86
2023/09/20 12:49:48;;;;;;;151.17;133.63;;;19.70;99.90;;;;;;6279305;22;20019;-86
2023/09/20 12:52:17;;;;;;;150.50;133.27;;;19.70;99.90;;;;;;6306462;22;20025;-86
2023/09/20 12:54:46;;;;;;;150.37;133.00;;;19.70;99.90;;;;;;6279578;22;20349;-87
2023/09/20 12:57:20;;;;;;;150.13;132.87;;;19.60;99.90;;;;;;6306329;22;20026;-86
2023/09/20 12:59:48;;;;;;;150.00;133.00;;;19.60;99.90;;;;;;6253910;22;20015;-86
2023/09/20 13:02:15;;;;;;;151.27;133.60;;;19.70;99.90;;;;;;6254131;22;20054;-86
2023/09/20 13:04:46;;;;;;;151.30;133.43;;;19.70;99.90;;;;;;6254308;22;20016;-86
2023/09/20 13:07:13;;;;;;;153.90;135.47;;;19.70;99.90;;;;;;6279332;22;20117;-87
2023/09/20 13:09:42;;;;;;;150.47;133.10;;;19.80;99.90;;;;;;6254228;22;20022;-86
2023/09/20 13:12:13;;;;;;;152.17;134.53;;;19.90;99.90;;;;;;6255108;22;20505;-86
2023/09/20 13:14:42;;;;;;;150.10;133.50;;;19.90;99.90;;;;;;6276724;22;20027;-86
2023/09/20 13:17:11;;;;;;;150.03;133.47;;;20.00;99.90;;;;;;6253886;22;20449;-86
2023/09/20 13:19:40;;;;;;;147.97;131.67;;;19.90;99.90;;;;;;6307438;22;20019;-85
2023/09/20 13:22:23;;;;;;;144.90;129.30;;;20.00;99.90;;;;;;6280026;22;20015;-91
2023/09/20 13:24:50;;;;;;;122.27;111.30;;;20.10;99.90;;;;;;6253543;22;20019;-85
2023/09/20 13:27:19;;;;;;;126.47;114.77;;;20.10;99.90;;;;;;6281695;22;20396;-84
2023/09/20 13:29:48;;;;;;;124.90;113.30;;;20.20;99.90;;;;;;6256926;22;20015;-85
2023/09/20 13:32:13;;;;;;;130.23;117.87;;;20.20;99.90;;;;;;6308867;22;20517;-80
2023/09/20 13:34:40;;;;;;;129.57;117.27;;;20.20;99.90;;;;;;6282402;22;20344;-84
2023/09/20 13:37:08;;;;;;;282.40;173.10;;;20.30;99.90;;;;;;6255989;22;20015;-84
2023/09/20 13:39:42;;;;;;;276.63;172.27;;;20.40;99.90;;;;;;6281417;22;20434;-83
2023/09/20 13:42:09;;;;;;;257.43;166.20;;;20.60;99.90;;;;;;6281507;22;20019;-84
2023/09/20 13:44:36;;;;;;;253.13;163.83;;;21.00;99.90;;;;;;6281334;22;20015;-83
2023/09/20 13:47:06;;;;;;;252.73;166.03;;;21.00;99.90;;;;;;6281205;22;20019;-86
2023/09/20 13:49:39;;;;;;;253.23;165.80;;;21.10;99.90;;;;;;6281656;22;20371;-85
2023/09/20 13:52:08;;;;;;;243.00;164.10;;;21.20;99.90;;;;;;6281610;22;20373;-85
2023/09/20 14:02:07;;;;;;;249.43;167.50;;;21.70;99.90;;;;;;6308820;22;20091;-85
2023/09/20 14:04:33;;;;;;;255.43;169.43;;;21.60;99.90;;;;;;6255721;22;20072;-86
2023/09/20 14:06:59;;;;;;;254.67;167.93;;;21.60;99.90;;;;;;6281171;22;20015;-86
2023/09/20 14:09:25;;;;;;;256.97;169.57;;;21.60;99.90;;;;;;6280837;22;20534;-86
2023/09/20 14:11:51;;;;;;;259.60;170.83;;;21.50;99.90;;;;;;6255655;22;20092;-86
2023/09/20 14:14:26;;;;;;;259.50;169.07;;;21.50;99.90;;;;;;6281283;22;20094;-85
2023/09/20 14:16:55;;;;;;;;;;;21.40;99.90;;;;;;6281638;22;20059;-86
2023/09/20 14:19:20;;;;;;;263.23;171.07;;;21.40;99.90;;;;;;6281024;22;19925;-86
2023/09/20 14:21:48;;;;;;;263.87;170.63;;;21.40;99.90;;;;;;6281767;22;20090;-86
2023/09/20 14:24:16;;;;;;;264.47;171.07;;;21.30;99.90;;;;;;6281255;22;20439;-85
2023/09/20 14:26:47;;;;;;;263.27;169.97;;;21.40;99.90;;;;;;6279477;22;20040;-85
2023/09/20 14:29:13;;;;;;;266.13;172.07;;;21.40;99.90;;;;;;6255040;22;20342;-86
2023/09/20 14:31:39;;;;;;;264.83;170.27;;;21.40;99.90;;;;;;6280007;22;20019;-86
2023/09/20 14:34:06;;;;;;;267.00;171.13;;;21.40;99.90;;;;;;6281143;22;20019;-85
2023/09/20 14:36:36;;;;;;;267.00;171.20;;;21.40;99.90;;;;;;6255005;22;20055;-86
2023/09/20 14:39:02;;;;;;;267.13;170.63;;;21.50;99.90;;;;;;6280943;22;20030;-86
2023/09/20 14:41:27;;;;;;;269.70;172.13;;;21.50;99.90;;;;;;6280851;22;20020;-86
2023/09/20 14:43:56;;;;;;;266.77;170.60;;;21.40;99.90;;;;;;6254292;22;20098;-85
2023/09/20 14:46:22;;;;;;;267.63;171.20;;;21.50;99.90;;;;;;6281072;22;20019;-86
2023/09/20 14:48:48;;;;;;;267.37;170.63;;;21.40;99.90;;;;;;6255142;22;20473;-86
2023/09/20 14:51:19;;;;;;;269.33;171.50;;;21.50;99.90;;;;;;6280656;22;20022;-87
2023/09/20 14:53:46;;;;;;;267.27;170.80;;;21.50;99.90;;;;;;6280868;22;20019;-87
2023/09/20 14:56:14;;;;;;;269.53;171.60;;;21.50;99.90;;;;;;6255911;22;20016;-86
2023/09/20 14:58:44;;;;;;;269.07;170.93;;;21.50;99.90;;;;;;6280580;22;20019;-86
2023/09/20 15:01:17;;;;;;;272.60;173.83;;;21.50;99.90;;;;;;6255130;22;20018;-87
2023/09/20 15:03:43;;;;;;;271.07;172.33;;;21.60;99.90;;;;;;6280622;22;20073;-86
2023/09/20 15:06:22;;;;;;;270.97;172.27;;;21.50;99.90;;;;;;6255247;22;20015;-86
2023/09/20 15:08:49;;;;;;;269.53;170.83;;;21.50;99.90;;;;;;6255101;22;20016;-86
2023/09/20 15:11:18;;;;;;;271.47;172.03;;;21.40;99.90;;;;;;6280667;22;20370;-86
2023/09/20 15:13:49;;;;;;;270.87;171.30;;;21.40;99.90;;;;;;6280359;22;20019;-86
2023/09/20 15:16:16;;;;;;;271.93;172.07;;;21.40;99.90;;;;;;6280121;22;20019;-86
2023/09/20 15:18:49;;;;;;;268.13;169.93;;;21.40;99.90;;;;;;6280440;22;20026;-87
2023/09/20 15:21:15;;;;;;;269.87;171.57;;;21.40;99.90;;;;;;6281039;22;20060;-86
2023/09/20 15:23:49;;;;;;;268.70;170.50;;;21.40;99.90;;;;;;6308121;22;20319;-86
2023/09/20 15:26:18;;;;;;;270.97;172.23;;;21.30;99.90;;;;;;6280134;22;20026;-86
2023/09/20 15:28:47;;;;;;;270.03;171.17;;;21.30;99.90;;;;;;6254721;22;20012;-86
2023/09/20 15:31:20;;;;;;;271.57;172.40;;;21.30;99.90;;;;;;6279956;22;20073;-86
2023/09/20 15:33:48;;;;;;;287.83;175.50;;;21.30;99.90;;;;;;6280695;22;20030;-87
2023/09/20 15:36:20;;;;;;;294.27;176.77;;;21.30;99.90;;;;;;6280084;22;20525;-89
2023/09/20 15:38:46;;;;;;;292.97;176.90;;;21.30;99.90;;;;;;6280660;22;20027;-88
2023/09/20 15:41:15;;;;;;;286.23;173.93;;;21.30;99.90;;;;;;6255182;22;20011;-87
2023/09/20 15:43:48;;;;;;;286.13;174.50;;;21.20;99.90;;;;;;6280869;22;20442;-85
2023/09/20 15:46:21;;;;;;;287.60;174.27;;;21.30;99.90;;;;;;6280293;22;20022;-86
2023/09/20 15:48:51;;;;;;;289.30;175.77;;;21.20;99.90;;;;;;6307497;22;20016;-87
2023/09/20 15:51:17;;;;;;;284.97;174.27;;;21.20;99.90;;;;;;6280691;22;20015;-85
2023/09/20 15:53:43;;;;;;;285.43;174.67;;;21.20;99.90;;;;;;6254221;22;20015;-86
2023/09/20 15:56:09;;;;;;;286.27;175.73;;;21.10;99.90;;;;;;6254546;22;20072;-86
2023/09/20 15:58:34;;;;;;;285.67;174.40;;;21.10;99.90;;;;;;6254364;22;20149;-86
2023/09/20 16:01:03;;;;;;;283.93;173.40;;;21.10;99.90;;;;;;6280830;22;20019;-86
2023/09/20 16:03:32;;;;;;;284.33;174.17;;;21.00;99.90;;;;;;6280265;22;20011;-85
2023/09/20 16:06:14;;;;;;;;;;;;;;;;;;;;;
2023/09/20 16:08:40;;;;;;;281.17;173.53;;;21.00;99.90;;;;;;6268358;22;20007;-85
2023/09/20 16:11:11;;;;;;;278.97;172.23;;;21.10;99.90;;;;;;6279991;22;20037;-86
2023/09/20 16:13:37;;;;;;;264.97;168.50;;;20.90;99.90;;;;;;6254778;22;20015;-85
2023/09/20 16:16:14;;;;;;;262.03;167.37;;;20.90;99.90;;;;;;6253294;22;20059;-88
2023/09/20 16:18:49;;;;;;;259.75;165.68;;;20.90;99.90;;;;;;6255371;22;20081;-85
2023/09/20 16:21:18;;;;;;;259.60;166.97;;;20.90;99.90;;;;;;6307524;22;20019;-87
2023/09/20 16:23:48;;;;;;;251.70;164.00;;;20.90;99.90;;;;;;6279008;22;20015;-85
2023/09/20 16:26:17;;;;;;;252.60;166.70;;;20.90;99.90;;;;;;6279489;22;20070;-85
2023/09/20 16:28:46;;;;;;;257.37;166.47;;;20.90;99.90;;;;;;6279339;22;20022;-83
2023/09/20 16:31:15;;;;;;;260.63;166.10;;;20.80;99.90;;;;;;6307713;22;20038;-82
2023/09/20 16:33:56;;;;;;;261.50;167.63;;;20.70;99.90;;;;;;6279959;22;20079;-87
2023/09/20 16:36:24;;;;;;;253.80;164.63;;;20.90;99.90;;;;;;6279879;22;20018;-83
2023/09/20 16:38:51;;;;;;;256.20;166.03;;;20.80;99.90;;;;;;6254333;22;20094;-86
2023/09/20 16:41:18;;;;;;;258.17;167.03;;;20.70;99.90;;;;;;6254588;22;20057;-84
2023/09/20 16:43:44;;;;;;;254.47;165.63;;;20.70;99.90;;;;;;6279347;22;20027;-86
2023/09/20 16:46:10;;;;;;;253.10;165.20;;;20.60;99.90;;;;;;6279198;22;20349;-82
2023/09/20 16:48:39;;;;;;;253.27;165.27;;;20.50;99.90;;;;;;6279798;22;20015;-86
2023/09/20 16:51:06;;;;;;;255.43;167.03;;;20.40;99.90;;;;;;6278074;22;20023;-85
2023/09/20 16:53:33;;;;;;;247.67;165.13;;;20.40;99.90;;;;;;6254167;22;20046;-81
2023/09/20 16:59:25;;;;;;;249.93;164.60;;;20.30;99.90;;;;;;6306442;22;20027;-87
2023/09/20 17:02:01;;;;;;;261.37;168.97;;;20.30;99.90;;;;;;6306910;22;20019;-87
2023/09/20 17:04:44;;;;;;;261.97;168.57;;;20.30;99.90;;;;;;6253689;22;20016;-86
2023/09/20 17:07:10;;;;;;;261.93;167.70;;;20.20;99.90;;;;;;6279526;22;20026;-86
2023/09/20 17:09:36;;;;;;;262.83;168.13;;;20.20;99.90;;;;;;6279253;22;20468;-87
2023/09/20 17:12:14;;;;;;;;;;;;;;;;;;;;;
2023/09/20 17:14:50;;;;;;;261.33;170.27;;;20.20;99.90;;;;;;6306859;22;20025;-86
2023/09/20 17:17:28;;;;;;;260.33;168.60;;;20.20;99.90;;;;;;6279793;22;20442;-87
2023/09/20 17:19:56;;;;;;;259.17;168.00;;;20.20;99.90;;;;;;6279191;22;20090;-82
2023/09/20 17:22:45;;;;;;;260.17;167.60;;;20.20;99.90;;;;;;6280081;22;20338;-89
2023/09/20 17:25:12;;;;;;;256.13;166.13;;;20.00;99.90;;;;;;6157407;23;20028;-87
2023/09/20 17:27:44;;;;;;;261.03;168.90;;;20.10;99.90;;;;;;6182259;23;20146;-87
2023/09/20 17:30:16;;;;;;;256.13;166.50;;;20.00;99.90;;;;;;6157681;23;20013;-88
2023/09/20 17:32:43;;;;;;;240.83;162.40;;;20.00;99.90;;;;;;6132950;23;20025;-82
2023/09/20 17:35:10;;;;;;;232.63;159.70;;;19.90;99.90;;;;;;6157534;23;20016;-87
2023/09/20 17:37:40;;;;;;;235.43;161.50;;;19.90;99.90;;;;;;6182429;23;20049;-83
2023/09/20 17:40:12;;;;;;;225.47;156.83;;;19.80;99.90;;;;;;6157601;23;20097;-80
2023/09/20 17:42:38;;;;;;;230.73;159.10;;;19.80;99.90;;;;;;6157519;23;20015;-87
2023/09/20 17:45:17;;;;;;;229.63;158.40;;;19.80;99.90;;;;;;6133157;23;20024;-91
2023/09/20 17:47:48;;;;;;;226.67;157.23;;;19.80;99.90;;;;;;6182242;23;20017;-82
2023/09/20 17:50:32;;;;;;;227.47;157.87;;;19.70;99.90;;;;;;6156799;23;20344;-90
2023/09/20 18:01:20;;;;;;;188.77;146.80;;;19.70;99.90;;;;;;6065919;23;20073;-88
2023/09/20 18:03:55;;;;;;;189.38;147.45;;;19.60;99.90;;;;;;6068901;23;20346;-90
2023/09/20 18:06:36;;;;;;;182.65;145.35;;;19.60;99.90;;;;;;6070858;23;20026;-90
2023/09/20 18:12:17;;;;;;;174.20;142.07;;;19.50;99.90;;;;;;6093211;23;20050;-93
2023/09/20 18:15:14;;;;;;;174.03;142.47;;;19.40;99.90;;;;;;6075055;23;20018;-91
2023/09/20 18:21:45;;;;;;;171.20;140.57;;;19.30;99.90;;;;;;6059423;23;20026;-90
2023/09/20 18:31:40;;;;;;;147.90;131.70;;;19.20;99.90;;;;;;6041558;23;20461;-93
2023/09/20 18:34:06;;;;;;;150.47;133.17;;;19.20;99.90;;;;;;5991168;23;20101;-86
2023/09/20 18:36:52;;;;;;;209.50;152.27;;;19.10;99.90;;;;;;6038699;23;20039;-88
2023/09/20 18:39:26;;;;;;;284.10;170.10;;;19.10;99.90;;;;;;6014456;23;20019;-88
2023/09/20 18:42:19;;;;;;;292.57;170.90;;;19.10;99.90;;;;;;6037541;23;20098;-87
2023/09/20 18:44:40;;;;;;;297.50;173.27;;;19.10;99.90;;;;;;6036630;23;20087;-85
2023/09/20 18:47:11;;;;;;;297.80;172.47;;;19.00;99.90;;;;;;6061827;23;20383;-90
2023/09/20 18:49:59;;;;;;;296.80;172.17;;;19.00;99.90;;;;;;6012785;23;20088;-89
2023/09/20 18:52:34;;;;;;;294.67;173.10;;;18.90;99.90;;;;;;5989916;23;20026;-90
2023/09/20 18:55:06;;;;;;;297.03;174.50;;;18.80;99.90;;;;;;6061631;23;20260;-86
2023/09/20 18:57:38;;;;;;;295.33;173.20;;;18.70;99.90;;;;;;6057376;23;20054;-88
2023/09/20 19:00:17;;;;;;;293.13;174.77;;;18.70;99.90;;;;;;6095362;23;20500;-90
2023/09/20 19:02:53;;;;;;;302.17;175.25;;;18.60;99.90;;;;;;6070692;23;20104;-85
2023/09/20 19:05:19;;;;;;;299.03;174.17;;;18.50;99.90;;;;;;6225017;22;20023;-87
2023/09/20 19:07:50;;;;;;;298.77;172.73;;;18.50;99.90;;;;;;6224463;22;20016;-86
2023/09/20 19:10:16;;;;;;;293.10;172.60;;;18.40;99.90;;;;;;6249837;22;20343;-89
2023/09/20 19:12:44;;;;;;;294.23;172.30;;;18.30;99.90;;;;;;6250117;22;20023;-86
2023/09/20 19:15:15;;;;;;;295.50;171.90;;;18.20;99.90;;;;;;6250502;22;20020;-87